首页
METAR-TAF:

METAR-TAF

机场 :

金奈国际机场

金奈, 印度

纬度: 13-00N, 经度: 080-11E, 海拔: 10米

当前天气观测

该预报发布于34分钟前的14:00 UTC
风速4节,风向东转东北
温度 28°C
湿度 74%
气压 1012 hPa
能見度: 4000
少量云层高于2000英尺

METAR: VOMM 231400Z 07004KT 4000 HZ FEW020 28/23 Q1012 NOSIG

时间: 20:04 (14:34 UTC)

预报

该预报发布于3小时和34分钟前的11:00 UTC
预报有效从23日的 12点(UTC)到 24日的 18点(UTC)
风速10节,风向东北
能見度: 5000
少量云层高于2000英尺
成为
从 23日的 15点(UTC)到 23日的 16点(UTC)
风速节,风向
成为
从 23日的 21点(UTC)到 23日的 22点(UTC)
能見度: 3000
轻雾
短暂存在
从 24日的 00点(UTC)到 24日的 03点(UTC)
能見度: 1500
轻雾
成为
从 24日的 05点(UTC)到 24日的 06点(UTC)
风速10节,风向东北
能見度: 5000

TAF: VOMM 231100Z 2312/2418 05010KT 5000 HZ FEW020 BECMG 2315/2316 00000KT BECMG 2321/2322 3000 BR TEMPO 2400/2403 1500 BR BECMG 2405/2406 05010KT 5000 HZ

超过4000个机场的气象观测和天气预报(METAR&TAF报告)。

可查询的气象台以黄色和红色小点在地图上表示。

将鼠标移到小点上方,可查看气象台名称。

然后点击查看天气观测和预报。

如需切换地图:点击带黑十字的绿色按钮放大地图;点击带横线的绿色按钮缩小地图;或者点击绿色箭头查看邻近地区的地图。


METAR-TAF: